createdAt,value
2023-05-13T00:00:24.420Z,8.38
2023-05-13T00:02:47.533Z,8.48
2023-05-13T00:05:10.353Z,8.32
2023-05-13T00:07:33.066Z,8.63
2023-05-13T00:09:55.730Z,7.85
2023-05-13T00:12:18.673Z,8.63
2023-05-13T00:14:41.594Z,8.95
2023-05-13T00:17:05.058Z,8.80
2023-05-13T00:19:27.800Z,8.87
2023-05-13T00:21:50.415Z,8.48
2023-05-13T00:24:13.408Z,8.40
2023-05-13T00:26:36.128Z,8.57
2023-05-13T00:28:58.698Z,8.75
2023-05-13T00:31:21.398Z,8.10
2023-05-13T00:33:44.335Z,8.55
2023-05-13T00:36:07.813Z,9.02
2023-05-13T00:38:30.660Z,9.10
2023-05-13T00:40:53.495Z,9.30
2023-05-13T00:43:17.069Z,8.47
2023-05-13T00:45:39.746Z,8.90
2023-05-13T00:48:02.569Z,9.18
2023-05-13T00:50:25.490Z,9.30
2023-05-13T00:52:50.826Z,8.55
2023-05-13T00:55:13.509Z,8.80
2023-05-13T00:57:37.268Z,8.82
2023-05-13T01:00:00.456Z,8.85
2023-05-13T01:02:42.124Z,9.15
2023-05-13T01:05:19.838Z,9.00
2023-05-13T01:08:01.461Z,8.37
2023-05-13T01:10:30.755Z,8.70
2023-05-13T01:13:00.262Z,8.15
2023-05-13T01:15:26.609Z,8.70
2023-05-13T01:18:13.705Z,8.25
2023-05-13T01:20:40.718Z,8.40
2023-05-13T01:23:04.221Z,8.75
2023-05-13T01:25:27.485Z,8.73
2023-05-13T01:28:31.818Z,8.80
2023-05-13T01:30:57.257Z,8.20
2023-05-13T01:33:21.319Z,8.60
2023-05-13T01:35:46.237Z,8.75
2023-05-13T01:38:10.772Z,8.50
2023-05-13T01:40:34.903Z,9.05
2023-05-13T01:43:01.087Z,8.32
2023-05-13T01:45:23.819Z,7.80
2023-05-13T01:47:47.259Z,8.25
2023-05-13T01:50:10.350Z,8.65
2023-05-13T01:52:33.044Z,9.05
2023-05-13T01:54:55.699Z,8.55
2023-05-13T01:57:18.347Z,8.70
2023-05-13T01:59:41.199Z,8.35
2023-05-13T02:02:05.638Z,8.90
2023-05-13T02:04:29.242Z,8.50
2023-05-13T02:06:52.027Z,8.77
2023-05-13T02:09:14.853Z,8.60
2023-05-13T02:11:37.512Z,8.95
2023-05-13T02:14:00.224Z,8.00
2023-05-13T02:16:23.327Z,8.75
2023-05-13T02:18:46.369Z,7.78
2023-05-13T02:21:09.427Z,8.43
2023-05-13T02:23:32.105Z,8.45
2023-05-13T02:25:54.715Z,8.50
2023-05-13T02:28:17.340Z,8.63
2023-05-13T02:30:39.937Z,8.43
2023-05-13T02:33:02.818Z,9.10
2023-05-13T02:35:29.707Z,8.43
2023-05-13T02:37:53.106Z,8.77
2023-05-13T02:40:15.819Z,8.45
2023-05-13T02:42:38.525Z,8.00
2023-05-13T02:45:01.523Z,8.23
2023-05-13T02:47:27.314Z,8.25
2023-05-13T02:49:50.095Z,8.98
2023-05-13T02:52:13.024Z,7.55
2023-05-13T02:54:35.923Z,8.23
2023-05-13T02:56:58.659Z,8.23
2023-05-13T02:59:21.375Z,8.30
2023-05-13T03:01:44.209Z,8.10
2023-05-13T03:04:06.987Z,8.15
2023-05-13T03:06:29.644Z,8.32
2023-05-13T03:08:52.317Z,8.03
2023-05-13T03:11:15.129Z,8.32
2023-05-13T03:13:37.649Z,8.80
2023-05-13T03:16:00.341Z,8.25
2023-05-13T03:18:23.773Z,9.18
2023-05-13T03:20:46.830Z,7.67
2023-05-13T03:23:09.403Z,8.40
2023-05-13T03:25:32.067Z,8.35
2023-05-13T03:27:55.323Z,8.95
2023-05-13T03:30:21.443Z,8.57
2023-05-13T03:32:52.928Z,8.57
2023-05-13T03:35:15.787Z,8.82
2023-05-13T03:37:39.040Z,8.70
2023-05-13T03:40:03.587Z,9.13
2023-05-13T03:42:27.928Z,9.27
2023-05-13T03:44:52.498Z,9.00
2023-05-13T03:47:15.447Z,8.63
2023-05-13T03:49:38.298Z,8.52
2023-05-13T03:52:01.202Z,9.35
2023-05-13T03:54:24.258Z,8.80
2023-05-13T03:56:46.882Z,9.20
2023-05-13T03:59:09.661Z,9.07
2023-05-13T04:01:32.340Z,8.60
2023-05-13T04:03:54.994Z,8.15
2023-05-13T04:06:17.955Z,8.30
2023-05-13T04:08:43.543Z,8.20
2023-05-13T04:11:06.104Z,8.23
2023-05-13T04:13:28.753Z,7.60
2023-05-13T04:15:51.323Z,7.35
2023-05-13T04:18:14.006Z,7.13
2023-05-13T04:20:40.163Z,7.37
2023-05-13T04:23:02.877Z,7.57
2023-05-13T04:25:25.564Z,7.70
2023-05-13T04:27:49.014Z,7.10
2023-05-13T04:30:19.707Z,7.18
2023-05-13T04:32:44.238Z,7.17
2023-05-13T04:35:08.467Z,7.60
2023-05-13T04:37:31.844Z,7.30
2023-05-13T04:39:58.582Z,7.18
2023-05-13T04:42:21.553Z,7.25
2023-05-13T04:44:47.297Z,6.10
2023-05-13T04:47:10.910Z,7.28
2023-05-13T04:49:33.746Z,7.22
2023-05-13T04:51:57.608Z,7.07
2023-05-13T04:54:21.314Z,6.95
2023-05-13T04:56:44.481Z,6.93
2023-05-13T04:59:09.022Z,6.57
2023-05-13T05:01:31.740Z,7.28
2023-05-13T05:03:54.432Z,6.85
2023-05-13T05:06:17.449Z,6.93
2023-05-13T05:08:40.791Z,7.20
2023-05-13T05:11:03.562Z,6.68
2023-05-13T05:13:28.610Z,7.47
2023-05-13T05:15:51.253Z,7.25
2023-05-13T05:18:14.260Z,6.45
2023-05-13T05:20:39.887Z,6.97
2023-05-13T05:23:07.391Z,6.32
2023-05-13T05:25:30.219Z,6.57
2023-05-13T05:27:52.913Z,6.22
2023-05-13T05:30:15.659Z,6.50
2023-05-13T05:32:42.111Z,7.00
2023-05-13T05:35:05.360Z,6.45
2023-05-13T05:37:30.429Z,6.47
2023-05-13T05:39:53.248Z,6.70
2023-05-13T05:42:18.761Z,6.55
2023-05-13T05:44:41.707Z,6.30
2023-05-13T05:47:04.470Z,6.55
2023-05-13T05:49:27.411Z,6.63
2023-05-13T05:51:50.493Z,6.47
2023-05-13T05:54:13.151Z,6.05
2023-05-13T05:56:35.846Z,6.17
2023-05-13T05:58:58.520Z,6.70
2023-05-13T06:01:23.071Z,6.40
2023-05-13T06:03:46.062Z,6.50
2023-05-13T06:06:08.808Z,6.55
2023-05-13T06:08:31.565Z,6.73
2023-05-13T06:10:54.236Z,6.30
2023-05-13T06:13:16.895Z,6.15
2023-05-13T06:15:39.581Z,6.32
2023-05-13T06:18:05.575Z,6.35
2023-05-13T06:20:30.377Z,6.03
2023-05-13T06:22:53.192Z,6.20
2023-05-13T06:25:16.331Z,6.05
2023-05-13T06:27:39.040Z,6.38
2023-05-13T06:30:01.708Z,6.32
2023-05-13T06:32:25.613Z,6.63
2023-05-13T06:34:48.544Z,6.20
2023-05-13T06:37:14.653Z,6.13
2023-05-13T06:39:38.187Z,6.30
2023-05-13T06:42:00.966Z,6.05
2023-05-13T06:44:27.651Z,6.07
2023-05-13T06:46:50.999Z,5.57
2023-05-13T06:49:13.653Z,6.07
2023-05-13T06:51:36.624Z,5.53
2023-05-13T06:53:59.573Z,6.05
2023-05-13T06:56:25.978Z,5.30
2023-05-13T06:58:50.395Z,6.05
2023-05-13T07:01:13.086Z,5.95
2023-05-13T07:03:36.403Z,5.45
2023-05-13T07:05:59.142Z,5.35
2023-05-13T07:08:22.715Z,5.97
2023-05-13T07:10:45.426Z,5.88
2023-05-13T07:13:08.013Z,5.50
2023-05-13T07:15:30.720Z,4.93
2023-05-13T07:17:53.432Z,4.80
2023-05-13T07:20:22.632Z,5.57
2023-05-13T07:22:45.523Z,5.30
2023-05-13T07:25:08.569Z,5.10
2023-05-13T07:27:31.280Z,5.13
2023-05-13T07:29:54.141Z,5.20
2023-05-13T07:32:16.692Z,5.03
2023-05-13T07:34:39.369Z,5.30
2023-05-13T07:37:01.950Z,5.20
2023-05-13T07:39:25.498Z,4.93
2023-05-13T07:41:48.121Z,4.72
2023-05-13T07:44:13.214Z,5.60
2023-05-13T07:46:35.863Z,5.05
2023-05-13T07:48:58.569Z,5.60
2023-05-13T07:51:21.294Z,4.65
2023-05-13T07:53:45.427Z,5.32
2023-05-13T07:56:08.172Z,4.83
2023-05-13T07:58:30.872Z,4.85
2023-05-13T08:00:53.642Z,4.88
2023-05-13T08:03:17.204Z,5.30
2023-05-13T08:05:39.910Z,5.00
2023-05-13T08:08:03.976Z,5.30
2023-05-13T08:10:26.821Z,4.70
2023-05-13T08:12:53.676Z,4.82
2023-05-13T08:15:17.093Z,4.80
2023-05-13T08:17:42.976Z,5.00
2023-05-13T08:20:06.173Z,4.90
2023-05-13T08:22:28.885Z,4.50
2023-05-13T08:24:51.493Z,4.68
2023-05-13T08:27:17.241Z,4.60
2023-05-13T08:29:39.937Z,4.35
2023-05-13T08:32:03.159Z,4.72
2023-05-13T08:34:26.093Z,5.00
2023-05-13T08:36:48.818Z,4.43
2023-05-13T08:39:11.533Z,4.55
2023-05-13T08:41:34.787Z,4.70
2023-05-13T08:43:58.498Z,4.75
2023-05-13T08:46:25.326Z,4.40
2023-05-13T08:48:48.478Z,4.43
2023-05-13T08:51:11.679Z,4.50
2023-05-13T08:53:35.916Z,4.30
2023-05-13T08:55:59.468Z,4.60
2023-05-13T08:58:22.487Z,4.60
2023-05-13T09:00:45.787Z,4.70
2023-05-13T09:03:08.688Z,4.53
2023-05-13T09:05:32.100Z,4.32
2023-05-13T09:07:55.107Z,4.38
2023-05-13T09:10:17.887Z,4.50
2023-05-13T09:12:51.730Z,4.25
2023-05-13T09:15:16.957Z,4.63
2023-05-13T09:17:47.840Z,4.75
2023-05-13T09:20:12.518Z,5.03
2023-05-13T09:22:35.321Z,4.90
2023-05-13T09:24:58.550Z,5.40
2023-05-13T09:27:38.283Z,4.90
2023-05-13T09:30:00.935Z,5.03
2023-05-13T09:32:23.514Z,4.80
2023-05-13T09:34:47.998Z,4.82
2023-05-13T09:37:10.550Z,4.95
2023-05-13T09:39:38.750Z,4.90
2023-05-13T09:42:04.913Z,4.63
2023-05-13T09:44:28.202Z,4.80
2023-05-13T09:46:52.327Z,4.97
2023-05-13T09:49:15.744Z,4.82
2023-05-13T09:51:38.299Z,4.95
2023-05-13T09:54:07.793Z,4.95
2023-05-13T09:56:32.185Z,4.80
2023-05-13T09:58:55.720Z,5.25
2023-05-13T10:01:19.630Z,5.05
2023-05-13T10:03:42.823Z,5.07
2023-05-13T10:06:05.805Z,4.70
2023-05-13T10:08:29.405Z,5.05
2023-05-13T10:10:56.320Z,5.00
2023-05-13T10:13:23.565Z,5.00
2023-05-13T10:15:55.884Z,4.72
2023-05-13T10:18:20.020Z,5.40
2023-05-13T10:20:46.410Z,4.90
2023-05-13T10:23:09.691Z,5.10
2023-05-13T10:25:33.548Z,5.25
2023-05-13T10:27:57.885Z,5.95
2023-05-13T10:30:26.258Z,5.60
2023-05-13T10:32:49.245Z,5.63
2023-05-13T10:35:17.555Z,6.07
2023-05-13T10:37:48.999Z,5.68
2023-05-13T10:40:42.510Z,5.50
2023-05-13T10:43:13.440Z,5.82
2023-05-13T10:45:36.182Z,5.75
2023-05-13T10:48:06.638Z,5.75
2023-05-13T10:50:31.122Z,6.15
2023-05-13T10:52:58.263Z,6.10
2023-05-13T10:55:21.488Z,5.60
2023-05-13T10:58:11.029Z,6.32
2023-05-13T11:00:34.499Z,6.03
2023-05-13T11:02:57.371Z,6.25
2023-05-13T11:05:21.435Z,6.30
2023-05-13T11:07:57.783Z,6.93
2023-05-13T11:10:30.019Z,6.40
2023-05-13T11:13:14.219Z,6.97
2023-05-13T11:15:48.818Z,6.82
2023-05-13T11:18:14.703Z,7.13
2023-05-13T11:20:51.561Z,6.90
2023-05-13T11:23:22.038Z,6.70
2023-05-13T11:25:45.848Z,6.70
2023-05-13T11:28:09.202Z,6.80
2023-05-13T11:30:31.957Z,7.15
2023-05-13T11:32:59.033Z,7.00
2023-05-13T11:35:32.257Z,6.47
2023-05-13T11:37:57.615Z,6.78
2023-05-13T11:40:26.548Z,7.53
2023-05-13T11:42:49.776Z,6.85
2023-05-13T11:45:12.559Z,6.70
2023-05-13T11:47:35.312Z,7.45
2023-05-13T11:49:59.165Z,6.20
2023-05-13T11:52:24.533Z,6.80
2023-05-13T11:54:54.716Z,6.80
2023-05-13T11:57:17.390Z,6.65
2023-05-13T11:59:47.945Z,6.43
2023-05-13T12:02:11.415Z,6.38
2023-05-13T12:04:34.044Z,6.80
2023-05-13T12:06:57.614Z,6.63
2023-05-13T12:10:25.000Z,6.60
2023-05-13T12:13:08.334Z,7.47
2023-05-13T12:15:31.246Z,6.40
2023-05-13T12:17:54.801Z,6.05
2023-05-13T12:20:18.679Z,6.32
2023-05-13T12:22:44.041Z,6.60
2023-05-13T12:25:31.458Z,6.32
2023-05-13T12:27:54.136Z,7.00
2023-05-13T12:30:17.038Z,6.30
2023-05-13T12:32:47.139Z,6.80
2023-05-13T12:35:16.017Z,6.50
2023-05-13T12:37:38.708Z,6.10
2023-05-13T12:40:14.536Z,5.95
2023-05-13T12:42:37.489Z,5.85
2023-05-13T12:45:00.147Z,6.32
2023-05-13T12:47:23.255Z,6.32
2023-05-13T12:49:53.349Z,6.35
2023-05-13T12:52:16.247Z,6.00
2023-05-13T12:54:38.882Z,6.68
2023-05-13T12:57:01.691Z,6.10
2023-05-13T12:59:24.772Z,6.22
2023-05-13T13:01:49.904Z,6.22
2023-05-13T13:04:12.909Z,6.32
2023-05-13T13:06:35.866Z,6.22
2023-05-13T13:09:01.252Z,6.22
2023-05-13T13:11:23.917Z,5.85
2023-05-13T13:13:47.404Z,6.07
2023-05-13T13:16:10.010Z,6.13
2023-05-13T13:18:32.656Z,6.65
2023-05-13T13:20:55.894Z,5.97
2023-05-13T13:23:19.398Z,6.32
2023-05-13T13:25:42.174Z,6.53
2023-05-13T13:28:04.866Z,6.43
2023-05-13T13:30:27.571Z,6.40
2023-05-13T13:32:50.333Z,6.47
2023-05-13T13:35:13.092Z,6.00
2023-05-13T13:37:37.318Z,6.65
2023-05-13T13:40:00.649Z,6.97
2023-05-13T13:42:26.740Z,6.30
2023-05-13T13:44:53.848Z,6.50
2023-05-13T13:47:16.501Z,6.35
2023-05-13T13:49:39.110Z,5.68
2023-05-13T13:52:04.984Z,6.20
2023-05-13T13:54:27.754Z,6.22
2023-05-13T13:56:50.400Z,6.10
2023-05-13T13:59:13.102Z,6.28
2023-05-13T14:01:35.893Z,6.57
2023-05-13T14:04:30.931Z,5.93
2023-05-13T14:06:55.633Z,5.88
2023-05-13T14:09:18.687Z,5.45
2023-05-13T14:11:41.659Z,6.15
2023-05-13T14:14:04.658Z,5.97
2023-05-13T14:16:27.345Z,6.05
2023-05-13T14:18:50.026Z,5.80
2023-05-13T14:21:12.742Z,5.43
2023-05-13T14:23:35.347Z,5.20
2023-05-13T14:25:57.918Z,6.07
2023-05-13T14:28:22.685Z,6.30
2023-05-13T14:30:46.376Z,6.00
2023-05-13T14:33:09.063Z,5.82
2023-05-13T14:35:34.710Z,5.68
2023-05-13T14:37:57.343Z,6.10
2023-05-13T14:40:23.058Z,5.32
2023-05-13T14:42:45.853Z,5.80
2023-05-13T14:45:10.871Z,5.72
2023-05-13T14:47:35.915Z,5.53
2023-05-13T14:49:58.712Z,5.70
2023-05-13T14:52:21.292Z,5.47
2023-05-13T14:54:43.931Z,5.30
2023-05-13T14:57:07.808Z,5.60
2023-05-13T14:59:30.706Z,5.45
2023-05-13T15:01:53.286Z,5.50
2023-05-13T15:04:16.207Z,5.90
2023-05-13T15:06:39.101Z,5.60
2023-05-13T15:09:02.222Z,5.95
2023-05-13T15:11:27.164Z,6.40
2023-05-13T15:13:49.807Z,5.80
2023-05-13T15:16:12.555Z,6.07
2023-05-13T15:18:35.391Z,6.47
2023-05-13T15:20:58.043Z,5.95
2023-05-13T15:23:20.727Z,6.00
2023-05-13T15:25:43.485Z,6.45
2023-05-13T15:28:06.150Z,5.82
2023-05-13T15:30:28.938Z,6.30
2023-05-13T15:32:51.656Z,5.90
2023-05-13T15:35:17.384Z,5.80
2023-05-13T15:37:42.694Z,5.93
2023-05-13T15:40:06.034Z,5.40
2023-05-13T15:42:28.943Z,5.75
2023-05-13T15:44:51.510Z,5.50
2023-05-13T15:47:14.259Z,6.15
2023-05-13T15:49:37.044Z,5.90
2023-05-13T15:52:00.585Z,5.63
2023-05-13T15:54:23.819Z,5.55
2023-05-13T15:56:46.914Z,5.93
2023-05-13T15:59:09.533Z,6.07
2023-05-13T16:01:35.107Z,5.88
2023-05-13T16:03:57.699Z,5.80
2023-05-13T16:06:20.833Z,5.90
2023-05-13T16:08:43.693Z,5.93
2023-05-13T16:11:09.545Z,6.10
2023-05-13T16:13:32.104Z,5.80
2023-05-13T16:15:55.107Z,5.90
2023-05-13T16:18:18.167Z,6.07
2023-05-13T16:20:41.274Z,5.75
2023-05-13T16:23:06.557Z,5.93
2023-05-13T16:25:29.251Z,5.80
2023-05-13T16:27:51.914Z,6.13
2023-05-13T16:30:14.862Z,6.20
2023-05-13T16:32:37.838Z,6.25
2023-05-13T16:35:01.598Z,6.47
2023-05-13T16:37:24.586Z,5.95
2023-05-13T16:39:47.713Z,6.30
2023-05-13T16:42:10.661Z,5.97
2023-05-13T16:44:33.758Z,6.10
2023-05-13T16:46:59.100Z,6.03
2023-05-13T16:49:21.888Z,5.78
2023-05-13T16:51:46.907Z,5.85
2023-05-13T16:54:09.617Z,5.80
2023-05-13T16:56:32.238Z,5.32
2023-05-13T16:58:54.821Z,6.40
2023-05-13T17:01:20.380Z,5.93
2023-05-13T17:03:43.430Z,6.00
2023-05-13T17:06:07.778Z,6.18
2023-05-13T17:08:30.698Z,6.25
2023-05-13T17:10:53.335Z,5.90
2023-05-13T17:13:16.971Z,6.35
2023-05-13T17:15:39.594Z,6.43
2023-05-13T17:18:02.311Z,6.63
2023-05-13T17:20:25.017Z,6.60
2023-05-13T17:22:48.406Z,6.80
2023-05-13T17:25:11.004Z,6.63
2023-05-13T17:27:33.602Z,7.00
2023-05-13T17:29:56.214Z,6.30
2023-05-13T17:32:18.922Z,6.50
2023-05-13T17:34:41.600Z,6.10
2023-05-13T17:37:04.283Z,6.35
2023-05-13T17:39:47.606Z,6.57
2023-05-13T17:42:10.322Z,7.00
2023-05-13T17:44:36.019Z,6.82
2023-05-13T17:46:58.719Z,6.70
2023-05-13T17:49:21.401Z,6.88
2023-05-13T17:51:44.130Z,6.97
2023-05-13T17:54:06.853Z,6.82
2023-05-13T17:56:29.545Z,7.13
2023-05-13T17:58:52.123Z,6.80
2023-05-13T18:01:19.773Z,7.28
2023-05-13T18:03:42.530Z,7.05
2023-05-13T18:06:05.475Z,7.55
2023-05-13T18:08:28.380Z,7.20
2023-05-13T18:10:51.162Z,7.00
2023-05-13T18:13:14.151Z,7.25
2023-05-13T18:15:37.152Z,7.10
2023-05-13T18:18:00.476Z,7.70
2023-05-13T18:20:23.480Z,8.13
2023-05-13T18:22:49.458Z,8.05
2023-05-13T18:25:12.371Z,8.73
2023-05-13T18:27:34.985Z,8.55
2023-05-13T18:29:57.797Z,7.82
2023-05-13T18:32:20.813Z,7.35
2023-05-13T18:34:43.560Z,7.57
2023-05-13T18:37:06.573Z,7.30
2023-05-13T18:39:29.234Z,6.63
2023-05-13T18:42:00.998Z,7.18
2023-05-13T18:44:23.655Z,7.13
2023-05-13T18:46:46.413Z,7.57
2023-05-13T18:49:09.234Z,7.40
2023-05-13T18:51:34.927Z,7.47
2023-05-13T18:53:57.623Z,7.22
2023-05-13T18:56:20.278Z,7.43
2023-05-13T18:58:46.792Z,7.63
2023-05-13T19:01:13.028Z,6.93
2023-05-13T19:03:36.300Z,7.50
2023-05-13T19:06:04.954Z,7.28
2023-05-13T19:08:27.763Z,7.25
2023-05-13T19:10:50.526Z,7.32
2023-05-13T19:13:14.679Z,7.38
2023-05-13T19:15:37.359Z,7.25
2023-05-13T19:18:00.381Z,7.30
2023-05-13T19:20:23.161Z,7.30
2023-05-13T19:22:46.091Z,7.32
2023-05-13T19:25:09.368Z,7.85
2023-05-13T19:27:32.217Z,7.60
2023-05-13T19:29:54.876Z,8.00
2023-05-13T19:32:17.512Z,8.27
2023-05-13T19:34:40.166Z,8.38
2023-05-13T19:37:04.520Z,7.90
2023-05-13T19:39:27.130Z,7.80
2023-05-13T19:41:49.877Z,7.65
2023-05-13T19:44:12.570Z,8.48
2023-05-13T19:46:35.588Z,8.27
2023-05-13T19:48:58.298Z,8.40
2023-05-13T19:51:27.008Z,8.38
2023-05-13T19:53:49.531Z,8.18
2023-05-13T19:56:12.273Z,8.55
2023-05-13T19:58:34.975Z,8.05
2023-05-13T20:00:58.166Z,8.57
2023-05-13T20:03:21.101Z,8.95
2023-05-13T20:05:43.955Z,8.95
2023-05-13T20:08:06.833Z,8.57
2023-05-13T20:10:29.556Z,9.10
2023-05-13T20:12:52.187Z,9.05
2023-05-13T20:15:16.599Z,8.77
2023-05-13T20:17:41.081Z,9.15
2023-05-13T20:20:05.129Z,8.95
2023-05-13T20:22:27.763Z,8.82
2023-05-13T20:24:51.351Z,9.00
2023-05-13T20:27:14.298Z,9.23
2023-05-13T20:29:38.120Z,9.55
2023-05-13T20:32:00.870Z,9.18
2023-05-13T20:34:23.672Z,9.65
2023-05-13T20:36:46.343Z,9.30
2023-05-13T20:39:08.954Z,9.48
2023-05-13T20:41:32.849Z,9.20
2023-05-13T20:43:55.487Z,9.20
2023-05-13T20:46:18.199Z,8.73
2023-05-13T20:48:40.893Z,9.00
2023-05-13T20:51:05.388Z,9.27
2023-05-13T20:53:28.073Z,9.25
2023-05-13T20:55:50.695Z,9.35
2023-05-13T20:58:13.380Z,9.27
2023-05-13T21:00:36.310Z,8.57
2023-05-13T21:02:59.665Z,9.60
2023-05-13T21:05:22.712Z,8.88
2023-05-13T21:07:45.555Z,9.23
2023-05-13T21:10:08.976Z,9.07
2023-05-13T21:12:31.739Z,9.43
2023-05-13T21:14:54.316Z,9.90
2023-05-13T21:17:21.347Z,9.13
2023-05-13T21:19:43.927Z,9.30
2023-05-13T21:22:06.871Z,9.43
2023-05-13T21:24:29.387Z,9.35
2023-05-13T21:26:52.285Z,9.55
2023-05-13T21:29:15.830Z,9.10
2023-05-13T21:31:40.147Z,9.18
2023-05-13T21:34:02.695Z,9.30
2023-05-13T21:36:26.030Z,8.90
2023-05-13T21:38:49.370Z,8.43
2023-05-13T21:41:12.103Z,8.52
2023-05-13T21:43:34.702Z,8.55
2023-05-13T21:45:57.355Z,8.93
2023-05-13T21:48:20.175Z,9.30
2023-05-13T21:50:43.289Z,10.18
2023-05-13T21:53:06.040Z,9.45
2023-05-13T21:55:28.856Z,8.82
2023-05-13T21:57:51.505Z,8.70
2023-05-13T22:00:19.238Z,7.87
2023-05-13T22:02:42.283Z,8.43
2023-05-13T22:05:05.279Z,7.53
2023-05-13T22:07:27.874Z,8.13
2023-05-13T22:09:50.583Z,8.10
2023-05-13T22:12:13.258Z,7.53
2023-05-13T22:14:35.910Z,7.85
2023-05-13T22:17:09.240Z,7.80
2023-05-13T22:19:34.660Z,7.72
2023-05-13T22:21:57.279Z,7.50
2023-05-13T22:24:20.414Z,7.53
2023-05-13T22:26:44.009Z,7.43
2023-05-13T22:29:06.706Z,7.57
2023-05-13T22:31:29.336Z,7.38
2023-05-13T22:33:52.174Z,7.50
2023-05-13T22:36:14.827Z,7.32
2023-05-13T22:38:38.925Z,7.38
2023-05-13T22:41:01.587Z,7.20
2023-05-13T22:43:24.251Z,7.43
2023-05-13T22:45:46.991Z,7.22
2023-05-13T22:48:09.753Z,7.77
2023-05-13T22:50:52.985Z,7.43
2023-05-13T22:53:36.197Z,7.10
2023-05-13T22:55:58.766Z,7.10
2023-05-13T22:58:21.598Z,7.20
2023-05-13T23:00:44.308Z,7.17
2023-05-13T23:03:06.995Z,7.68
2023-05-13T23:05:29.621Z,7.53
2023-05-13T23:07:52.373Z,7.00
2023-05-13T23:10:14.984Z,7.40
2023-05-13T23:12:37.906Z,7.15
2023-05-13T23:15:00.574Z,7.43
2023-05-13T23:17:23.189Z,7.40
2023-05-13T23:19:46.010Z,7.20
2023-05-13T23:22:08.614Z,7.32
2023-05-13T23:24:31.746Z,7.17
2023-05-13T23:26:54.434Z,7.40
2023-05-13T23:29:17.335Z,8.27
2023-05-13T23:31:43.014Z,7.93
2023-05-13T23:34:06.647Z,8.02
2023-05-13T23:36:29.203Z,8.03
2023-05-13T23:38:51.933Z,8.15
2023-05-13T23:41:14.550Z,8.40
2023-05-13T23:43:37.180Z,8.50
2023-05-13T23:45:59.827Z,8.32
2023-05-13T23:48:22.890Z,8.25
2023-05-13T23:50:45.726Z,8.50
2023-05-13T23:53:08.473Z,7.82
2023-05-13T23:55:31.020Z,7.80
2023-05-13T23:57:53.676Z,7.80
